createdAt,value
2023-03-23T15:58:32.201Z,10.40
2023-03-23T16:01:05.877Z,10.75
2023-03-23T16:03:43.041Z,10.50
2023-03-23T16:06:24.110Z,10.82
2023-03-23T16:08:58.880Z,11.68
2023-03-23T16:11:31.329Z,11.77
2023-03-23T16:14:01.495Z,12.00
2023-03-23T16:16:35.665Z,11.10
2023-03-23T16:19:05.536Z,11.60
2023-03-23T16:21:36.690Z,12.77
2023-03-23T16:24:06.058Z,12.95
2023-03-23T16:26:35.870Z,12.60
2023-03-23T16:29:23.900Z,12.30
2023-03-23T16:32:02.727Z,13.35
2023-03-23T16:34:35.676Z,13.85
2023-03-23T16:37:06.999Z,14.07
2023-03-23T16:39:36.763Z,14.07
2023-03-23T16:42:06.245Z,13.05
2023-03-23T16:44:35.460Z,13.82
2023-03-23T16:47:05.355Z,13.70
2023-03-23T16:49:34.382Z,14.65
2023-03-23T16:52:03.450Z,13.40
2023-03-23T16:54:34.515Z,13.13
2023-03-23T16:57:03.821Z,13.93
2023-03-23T16:59:33.644Z,14.63
2023-03-23T17:02:04.078Z,14.00
2023-03-23T17:04:34.277Z,15.23
2023-03-23T17:07:03.323Z,15.90
2023-03-23T17:09:35.938Z,15.25
2023-03-23T17:12:05.742Z,16.03
2023-03-23T17:14:35.479Z,16.48
2023-03-23T17:17:05.041Z,16.38
2023-03-23T17:19:53.752Z,16.98
2023-03-23T17:25:10.678Z,15.32
2023-03-23T17:27:43.000Z,15.70
2023-03-23T17:30:14.534Z,17.17
2023-03-23T17:32:44.717Z,15.93
2023-03-23T17:35:14.282Z,16.98
2023-03-23T17:37:45.270Z,16.67
2023-03-23T17:40:54.234Z,19.05
2023-03-23T17:43:24.170Z,17.80
2023-03-23T17:45:53.643Z,18.83
2023-03-23T17:48:23.412Z,17.80
2023-03-23T17:50:57.682Z,18.45
2023-03-23T17:53:26.803Z,18.63
2023-03-23T17:56:00.500Z,19.73
2023-03-23T17:58:29.769Z,19.25
2023-03-23T18:01:09.664Z,19.35
2023-03-23T18:03:44.734Z,19.90
2023-03-23T18:06:15.856Z,19.92
2023-03-23T18:08:47.995Z,18.70
2023-03-23T18:11:19.912Z,19.52
2023-03-23T18:13:49.718Z,18.13
2023-03-23T18:16:20.503Z,18.08
2023-03-23T18:18:51.313Z,18.50
2023-03-23T18:21:23.320Z,18.67
2023-03-23T18:23:59.195Z,18.52
2023-03-23T18:26:38.158Z,18.00
2023-03-23T18:29:07.711Z,17.15
2023-03-23T18:31:40.411Z,16.27
2023-03-23T18:34:10.616Z,18.98
2023-03-23T18:36:40.475Z,18.13
2023-03-23T18:39:12.268Z,18.48
2023-03-23T18:41:45.862Z,17.33
2023-03-23T18:44:15.496Z,18.15
2023-03-23T18:46:45.070Z,17.85
2023-03-23T18:49:16.278Z,32.53
2023-03-23T18:51:46.112Z,18.63
2023-03-23T18:54:18.583Z,17.77
2023-03-23T18:56:50.717Z,17.98
2023-03-23T18:59:27.609Z,17.77
2023-03-23T19:01:59.781Z,23.65
2023-03-23T19:04:31.935Z,18.98
2023-03-23T19:07:04.045Z,20.15
2023-03-23T19:09:43.233Z,19.38
2023-03-23T19:12:24.671Z,18.83
2023-03-23T19:14:54.755Z,19.45
2023-03-23T19:17:25.227Z,20.13
2023-03-23T19:19:54.921Z,19.50
2023-03-23T19:22:25.003Z,19.30
2023-03-23T19:24:54.330Z,20.63
2023-03-23T19:27:24.667Z,19.85
2023-03-23T19:29:54.068Z,20.10
2023-03-23T19:32:25.266Z,19.75
2023-03-23T19:34:55.076Z,20.40
2023-03-23T19:37:27.484Z,20.38
2023-03-23T19:39:56.957Z,19.70
2023-03-23T19:42:27.622Z,26.52
2023-03-23T19:45:00.240Z,23.02
2023-03-23T19:47:29.476Z,20.50
2023-03-23T19:49:59.975Z,23.48
2023-03-23T19:52:31.349Z,19.85
2023-03-23T19:55:01.300Z,21.40
2023-03-23T19:57:34.735Z,19.95
2023-03-23T20:00:07.592Z,19.48
2023-03-23T20:02:38.294Z,19.48
2023-03-23T20:05:08.853Z,19.35
2023-03-23T20:07:41.134Z,20.33
2023-03-23T20:10:11.671Z,19.58
2023-03-23T20:12:44.393Z,20.33
2023-03-23T20:15:13.992Z,19.90
2023-03-23T20:17:48.289Z,21.95
2023-03-23T20:20:18.462Z,20.00
2023-03-23T20:22:50.027Z,21.17
2023-03-23T20:27:52.721Z,21.15
2023-03-23T20:30:23.995Z,22.55
2023-03-23T20:33:00.658Z,20.15
2023-03-23T20:35:31.987Z,20.60
2023-03-23T20:38:01.673Z,21.05
2023-03-23T20:40:31.145Z,22.00
2023-03-23T20:43:04.252Z,21.25
2023-03-23T20:45:39.097Z,21.10
2023-03-23T20:48:42.972Z,20.80
2023-03-23T20:51:12.998Z,21.85
2023-03-23T20:53:42.767Z,22.13
2023-03-23T20:56:16.393Z,22.67
2023-03-23T20:58:49.356Z,22.25
2023-03-23T21:01:18.994Z,22.98
2023-03-23T21:03:52.223Z,22.38
2023-03-23T21:06:23.642Z,22.45
2023-03-23T21:08:53.409Z,21.88
2023-03-23T21:11:45.154Z,21.50
2023-03-23T21:14:17.242Z,21.45
2023-03-23T21:16:46.744Z,21.35
2023-03-23T21:19:16.239Z,22.00
2023-03-23T21:21:56.684Z,22.52
2023-03-23T21:24:28.397Z,20.83
2023-03-23T21:26:59.320Z,22.20
2023-03-23T21:29:33.571Z,19.67
2023-03-23T21:32:08.296Z,39.55
2023-03-23T21:34:40.805Z,22.13
2023-03-23T21:37:12.617Z,19.90
2023-03-23T21:39:41.814Z,21.38
2023-03-23T21:42:13.723Z,19.55
2023-03-23T21:44:44.081Z,19.20
2023-03-23T21:47:16.225Z,20.50
2023-03-23T21:49:46.158Z,21.20
2023-03-23T21:52:15.526Z,21.10
2023-03-23T21:54:45.785Z,20.27
2023-03-23T21:57:14.728Z,20.70
2023-03-23T21:59:45.493Z,20.17
2023-03-23T22:02:15.884Z,20.00
2023-03-23T22:04:45.215Z,19.77
2023-03-23T22:07:14.488Z,20.33
2023-03-23T22:09:45.038Z,19.52
2023-03-23T22:12:14.661Z,18.90
2023-03-23T22:14:45.417Z,19.02
2023-03-23T22:17:20.251Z,18.73
2023-03-23T22:19:52.340Z,19.33
2023-03-23T22:22:21.767Z,17.55
2023-03-23T22:24:54.526Z,16.90
2023-03-23T22:27:27.170Z,20.67
2023-03-23T22:29:57.781Z,18.13
2023-03-23T22:32:27.304Z,22.38
2023-03-23T22:34:57.567Z,17.58
2023-03-23T22:37:40.054Z,18.85
2023-03-23T22:40:11.684Z,16.58
2023-03-23T22:42:43.103Z,16.00
2023-03-23T22:45:13.545Z,16.85
2023-03-23T22:47:42.822Z,15.00
2023-03-23T22:50:12.286Z,16.02
2023-03-23T22:52:41.429Z,16.67
2023-03-23T22:55:10.858Z,17.83
2023-03-23T22:57:39.959Z,16.50
2023-03-23T23:00:14.716Z,15.38
2023-03-23T23:02:49.955Z,16.30
2023-03-23T23:05:19.177Z,15.80
2023-03-23T23:07:48.204Z,15.68
2023-03-23T23:10:17.811Z,13.93
2023-03-23T23:12:47.795Z,15.40
2023-03-23T23:15:17.247Z,15.18
2023-03-23T23:17:48.102Z,13.80
2023-03-23T23:20:18.880Z,12.73
2023-03-23T23:22:47.993Z,12.45
2023-03-23T23:25:17.431Z,13.05
2023-03-23T23:27:46.694Z,13.45
2023-03-23T23:30:15.897Z,12.13
2023-03-23T23:32:45.207Z,12.32
2023-03-23T23:35:15.677Z,12.70
2023-03-23T23:37:44.695Z,12.38
2023-03-23T23:40:17.988Z,13.23
2023-03-23T23:42:48.903Z,11.68
2023-03-23T23:45:18.207Z,12.43
2023-03-23T23:47:48.053Z,12.27
2023-03-23T23:50:18.861Z,11.40
2023-03-23T23:52:50.350Z,11.68
2023-03-23T23:55:20.593Z,11.88
2023-03-23T23:57:52.694Z,12.18
